Weather at UCSF Medical Center at Mission Bay Helipad

Public forecast

Using degrees Fahrenheit for public forecast. Weather courtesy of forecast.io.

Closest aviation weather report (METAR) to UCSF Medical Center at Mission Bay Helipad

Closest report is Metropolitan Oakland International Airport, 8.5 nm (15.7 km) ESE.

2024/05/26 07:53 (retrieved 17 minutes ago)

KOAK 260753Z 23005KT 10SM BKN016 12/08 A3007 RMK AO2 SLP181 T01170083 401670111

Closest aviation forecast (TAF) to UCSF Medical Center at Mission Bay Helipad

Closest forecast is Metropolitan Oakland International Airport, 8.5 nm (15.7 km) ESE.

2024/05/26 06:36 (retrieved 2 hours ago)

TAF KOAK 260533Z 2606/2712 26010KT P6SM OVC010 FM261700 26009KT P6SM FEW011 FM262000 28014KT P6SM SKC FM270400 27010KT P6SM SCT009 FM271000 23006KT P6SM BKN010